Time;durP1;ratioP1;P1;durP2;ratioP2;P2;SDS_P1;SDS_P2;PMS_P1;PMS_P2;Temp;Humidity;BMP_temperature;BMP_pressure;BME280_temperature;BME280_humidity;BME280_pressure;Samples;Min_cycle;Max_cycle;Signal;HPM_P1;HPM_P2
2021/12/25 00:00:01;;;;;;;2.90;1.30;;;-1.60;99.90;;;;;;5074305;28;20025;-48
2021/12/25 00:02:27;;;;;;;4.60;1.75;;;-1.60;99.90;;;;;;5074004;28;20103;-48
2021/12/25 00:04:53;;;;;;;3.00;1.33;;;-1.70;99.90;;;;;;5074365;28;20055;-46
2021/12/25 00:07:19;;;;;;;3.03;1.30;;;-1.60;99.90;;;;;;5074249;28;20056;-47
2021/12/25 00:09:44;;;;;;;2.70;1.25;;;-1.60;99.90;;;;;;5074328;28;20431;-46
2021/12/25 00:12:10;;;;;;;4.13;1.15;;;-1.60;99.90;;;;;;5074173;28;20472;-46
2021/12/25 00:14:36;;;;;;;2.20;1.45;;;-1.60;99.90;;;;;;5074068;28;20397;-47
2021/12/25 00:17:01;;;;;;;3.03;1.33;;;-1.70;99.90;;;;;;5073943;28;20024;-49
2021/12/25 00:19:27;;;;;;;4.93;1.98;;;-1.70;99.90;;;;;;5074100;28;20032;-46
2021/12/25 00:21:53;;;;;;;7.03;1.80;;;-1.80;99.90;;;;;;5074740;28;20028;-46
2021/12/25 00:24:18;;;;;;;3.63;1.52;;;-1.80;99.90;;;;;;5074052;28;20024;-47
2021/12/25 00:27:07;;;;;;;3.83;1.45;;;-1.80;99.90;;;;;;5073743;28;20028;-49
2021/12/25 00:34:36;;;;;;;4.30;1.52;;;-1.80;99.90;;;;;;5073866;28;20435;-47
2021/12/25 00:37:04;;;;;;;3.58;1.45;;;-1.80;99.90;;;;;;5074054;28;20401;-46
2021/12/25 00:39:30;;;;;;;3.08;2.00;;;-1.90;99.90;;;;;;5055592;28;20399;-47
2021/12/25 00:42:00;;;;;;;3.88;1.25;;;-1.90;99.90;;;;;;5073525;28;20558;-49
2021/12/25 00:44:26;;;;;;;6.10;1.88;;;-1.80;99.90;;;;;;5073373;28;20033;-46
2021/12/25 00:46:52;;;;;;;3.03;1.40;;;-1.90;99.90;;;;;;5073612;28;20177;-47
2021/12/25 00:49:18;;;;;;;3.60;1.50;;;-1.80;99.90;;;;;;5073651;28;20521;-47
2021/12/25 00:51:44;;;;;;;3.35;1.75;;;-1.90;99.90;;;;;;5073285;28;20154;-48
2021/12/25 00:54:10;;;;;;;3.50;1.63;;;-1.80;99.90;;;;;;5073091;28;20388;-46
2021/12/25 00:56:36;;;;;;;2.95;1.58;;;-1.80;99.90;;;;;;5073202;28;20024;-47
2021/12/25 00:59:02;;;;;;;2.85;1.35;;;-1.90;99.90;;;;;;5073403;28;20032;-47
2021/12/25 01:01:28;;;;;;;5.13;1.58;;;-1.80;99.90;;;;;;5073247;28;20032;-47
2021/12/25 01:03:53;;;;;;;2.50;1.48;;;-1.80;99.90;;;;;;5073039;28;20040;-46
2021/12/25 01:06:19;;;;;;;2.58;1.23;;;-1.90;99.90;;;;;;5072559;28;20027;-47
2021/12/25 01:08:45;;;;;;;2.78;1.30;;;-1.90;99.90;;;;;;5073228;28;20029;-48
2021/12/25 01:11:10;;;;;;;4.07;1.70;;;-1.90;99.90;;;;;;5073124;28;20020;-49
2021/12/25 01:13:43;;;;;;;5.07;1.65;;;-1.90;99.90;;;;;;5073121;28;20338;-47
2021/12/25 01:16:59;;;;;;;4.00;1.75;;;-1.90;99.90;;;;;;5073146;28;20111;-47
2021/12/25 01:22:18;;;;;;;4.53;1.50;;;-2.10;99.90;;;;;;5072821;28;20093;-46
2021/12/25 01:25:17;;;;;;;3.63;1.63;;;-2.10;99.90;;;;;;5073434;28;20021;-48
2021/12/25 01:38:03;;;;;;;1.25;0.95;;;-2.30;99.90;;;;;;5073122;28;20461;-47
2021/12/25 01:48:38;;;;;;;4.45;1.27;;;-2.40;99.90;;;;;;5072742;28;20067;-47
2021/12/25 01:51:04;;;;;;;2.63;1.35;;;-2.50;99.90;;;;;;5054505;28;20059;-47
2021/12/25 01:53:30;;;;;;;2.10;1.10;;;-2.50;99.90;;;;;;5054399;28;20055;-48
2021/12/25 01:55:58;;;;;;;3.05;1.05;;;-2.50;99.90;;;;;;5072610;28;20437;-47
2021/12/25 01:58:24;;;;;;;2.88;1.05;;;-2.40;99.90;;;;;;5072485;28;20490;-46
2021/12/25 02:00:53;;;;;;;2.97;1.08;;;-2.50;99.90;;;;;;5072366;28;20035;-47
2021/12/25 02:03:21;;;;;;;1.92;0.80;;;-2.50;99.90;;;;;;5072283;28;20033;-49
2021/12/25 02:05:47;;;;;;;2.25;1.40;;;-2.60;99.90;;;;;;5072677;28;20087;-46
2021/12/25 02:08:13;;;;;;;3.67;1.38;;;-2.60;99.90;;;;;;5072545;28;20032;-46
2021/12/25 02:10:39;;;;;;;2.85;1.15;;;-2.60;99.90;;;;;;5072149;28;20099;-48
2021/12/25 02:13:05;;;;;;;6.00;1.08;;;-2.50;99.90;;;;;;5072148;28;20036;-46
2021/12/25 02:15:32;;;;;;;1.58;0.90;;;-2.50;99.90;;;;;;5072463;28;20497;-47
2021/12/25 02:20:39;;;;;;;1.90;1.10;;;-2.50;99.90;;;;;;5076667;28;20036;-46
2021/12/25 02:23:21;;;;;;;3.25;1.10;;;-2.50;99.90;;;;;;5076283;28;20028;-49
2021/12/25 02:25:48;;;;;;;2.80;1.02;;;-2.50;99.90;;;;;;5075908;28;20101;-46
2021/12/25 02:28:15;;;;;;;2.47;1.40;;;-2.50;99.90;;;;;;5076063;28;20024;-46
2021/12/25 02:30:42;;;;;;;4.35;1.48;;;-2.50;99.90;;;;;;5076071;28;20028;-46
2021/12/25 02:33:08;;;;;;;3.00;1.55;;;-2.50;99.90;;;;;;5076400;28;20097;-49
2021/12/25 02:35:34;;;;;;;5.43;1.15;;;-2.40;99.90;;;;;;5075647;28;20044;-48
2021/12/25 02:38:01;;;;;;;3.40;1.17;;;-2.40;99.90;;;;;;5076099;28;20492;-47
2021/12/25 02:40:26;;;;;;;4.50;1.23;;;-2.50;99.90;;;;;;5075701;28;20074;-47
2021/12/25 02:42:52;;;;;;;4.93;1.50;;;-2.50;99.90;;;;;;5075960;28;20028;-47
2021/12/25 02:45:20;;;;;;;5.25;1.10;;;-2.50;99.90;;;;;;5075813;28;20116;-46
2021/12/25 02:47:50;;;;;;;4.68;1.23;;;-2.50;99.90;;;;;;5075621;28;20020;-46
2021/12/25 02:50:27;;;;;;;6.63;1.20;;;-2.50;99.90;;;;;;5075840;28;20108;-47
2021/12/25 02:52:54;;;;;;;2.20;1.10;;;-2.50;99.90;;;;;;5075397;28;20115;-46
2021/12/25 02:55:20;;;;;;;7.05;1.38;;;-2.60;99.90;;;;;;5075641;28;20104;-47
2021/12/25 02:57:50;;;;;;;3.80;1.02;;;-2.60;99.90;;;;;;5075666;28;20374;-46
2021/12/25 03:00:18;;;;;;;1.40;1.00;;;-2.60;99.90;;;;;;5075593;28;20028;-48
2021/12/25 03:02:44;;;;;;;3.38;1.20;;;-2.50;99.90;;;;;;5075560;28;20392;-48
2021/12/25 03:05:09;;;;;;;2.13;0.82;;;-2.60;99.90;;;;;;5075659;28;20025;-47
2021/12/25 03:07:35;;;;;;;5.05;1.17;;;-2.50;99.90;;;;;;5075407;28;20033;-47
2021/12/25 03:10:01;;;;;;;3.08;1.27;;;-2.50;99.90;;;;;;5075486;28;20036;-47
2021/12/25 03:12:35;;;;;;;3.53;1.63;;;-2.60;99.90;;;;;;5075315;28;20068;-47
2021/12/25 03:15:46;;;;;;;2.10;0.95;;;-2.60;99.90;;;;;;5075717;28;20146;-46
2021/12/25 03:17:46;;;;;;;1.65;0.80;;;-2.60;99.90;;;;;;5064205;28;20032;-46
2021/12/25 03:20:12;;;;;;;3.40;0.95;;;-2.60;99.90;;;;;;5075125;28;20029;-44
2021/12/25 03:22:39;;;;;;;1.98;1.00;;;-2.60;99.90;;;;;;5075118;28;20495;-49
2021/12/25 03:25:12;;;;;;;5.85;1.10;;;-2.60;99.90;;;;;;5075294;28;20042;-46
2021/12/25 03:27:40;;;;;;;1.45;0.77;;;-2.70;99.90;;;;;;5074836;28;20028;-46
2021/12/25 03:30:08;;;;;;;2.33;0.70;;;-2.70;99.90;;;;;;5075103;28;20385;-46
2021/12/25 03:32:34;;;;;;;2.63;1.40;;;-2.80;99.90;;;;;;5074818;28;20588;-47
2021/12/25 03:34:59;;;;;;;7.75;1.45;;;-2.90;99.90;;;;;;5075016;28;20116;-48
2021/12/25 03:37:25;;;;;;;1.52;0.95;;;-2.90;99.90;;;;;;5074946;28;20037;-48
2021/12/25 03:39:51;;;;;;;1.80;0.95;;;-3.00;99.90;;;;;;5074676;28;20032;-47
2021/12/25 03:42:18;;;;;;;6.28;1.40;;;-3.10;99.90;;;;;;5075095;28;20033;-46
2021/12/25 03:44:43;;;;;;;4.38;1.50;;;-3.10;99.90;;;;;;5074948;28;20459;-48
2021/12/25 03:47:24;;;;;;;2.35;0.98;;;-3.20;99.90;;;;;;5075138;28;20028;-44
2021/12/25 03:58:08;;;;;;;6.57;1.33;;;-3.20;99.90;;;;;;5074497;28;20063;-48
2021/12/25 04:00:35;;;;;;;2.17;1.10;;;-3.20;99.90;;;;;;5074329;28;20442;-50
2021/12/25 04:03:05;;;;;;;2.45;1.20;;;-3.20;99.90;;;;;;5074709;28;20466;-46
2021/12/25 04:05:33;;;;;;;1.33;0.90;;;-3.20;99.90;;;;;;5074608;28;20103;-46
2021/12/25 04:08:06;;;;;;;2.35;0.82;;;-3.20;99.90;;;;;;5074840;28;20036;-45
2021/12/25 04:10:36;;;;;;;3.13;1.17;;;-3.30;99.90;;;;;;5074519;28;20024;-46
2021/12/25 04:13:08;;;;;;;1.05;0.70;;;-3.30;99.90;;;;;;5074887;28;20038;-47
2021/12/25 04:15:34;;;;;;;1.92;1.02;;;-3.40;99.90;;;;;;5073872;28;20041;-48
2021/12/25 04:18:00;;;;;;;5.60;0.80;;;-3.40;99.90;;;;;;5074346;28;20029;-46
2021/12/25 04:20:27;;;;;;;0.68;0.60;;;-3.50;99.90;;;;;;5074020;28;20074;-47
2021/12/25 04:23:05;;;;;;;2.40;1.00;;;-3.50;99.90;;;;;;5074236;28;20021;-47
2021/12/25 04:25:33;;;;;;;5.57;1.00;;;-3.50;99.90;;;;;;5074149;28;20103;-50
2021/12/25 04:28:10;;;;;;;4.47;1.00;;;-3.50;99.90;;;;;;5074159;28;20120;-51
2021/12/25 05:06:03;;;;;;;2.00;1.02;;;-3.90;99.90;;;;;;5074004;28;20413;-49
2021/12/25 05:08:28;;;;;;;3.00;1.30;;;-3.90;99.90;;;;;;5074424;28;20025;-49
2021/12/25 05:10:54;;;;;;;1.80;0.90;;;-3.90;99.90;;;;;;5074173;28;20411;-48
2021/12/25 05:13:20;;;;;;;3.30;1.10;;;-3.90;99.90;;;;;;5074212;28;20028;-47
2021/12/25 05:15:47;;;;;;;2.00;1.10;;;-4.00;99.90;;;;;;5075434;28;20041;-48
2021/12/25 05:18:13;;;;;;;7.28;1.15;;;-4.00;99.90;;;;;;5075486;28;20049;-48
2021/12/25 05:20:39;;;;;;;3.60;1.23;;;-4.00;99.90;;;;;;5074218;28;20020;-50
2021/12/25 05:23:05;;;;;;;3.38;1.08;;;-4.00;99.90;;;;;;5074300;28;20103;-48
2021/12/25 05:25:32;;;;;;;1.70;1.00;;;-4.10;99.90;;;;;;5073546;28;20113;-49
2021/12/25 05:27:59;;;;;;;5.25;0.90;;;-4.10;99.90;;;;;;5073739;28;20061;-49
2021/12/25 05:30:25;;;;;;;1.52;1.10;;;-4.10;99.90;;;;;;5073921;28;20036;-52
2021/12/25 05:32:51;;;;;;;1.98;1.00;;;-4.10;99.90;;;;;;5073816;28;20013;-47
2021/12/25 05:35:16;;;;;;;1.10;1.00;;;-4.10;99.90;;;;;;5073856;28;20131;-51
2021/12/25 05:37:42;;;;;;;1.92;1.15;;;-4.10;99.90;;;;;;5073664;28;20025;-49
2021/12/25 05:40:08;;;;;;;2.83;1.13;;;-4.20;99.90;;;;;;5073731;28;20017;-51
2021/12/25 05:42:34;;;;;;;5.00;1.67;;;-4.10;99.90;;;;;;5073646;28;20020;-53
2021/12/25 05:44:59;;;;;;;2.17;1.10;;;-4.10;99.90;;;;;;5073608;28;20016;-51
2021/12/25 05:47:26;;;;;;;2.90;1.40;;;-4.20;99.90;;;;;;5073870;28;20024;-47
2021/12/25 05:49:51;;;;;;;5.03;1.40;;;-4.30;99.90;;;;;;5073336;28;20028;-49
2021/12/25 05:52:17;;;;;;;2.75;1.67;;;-4.30;99.90;;;;;;5073324;28;20020;-52
2021/12/25 05:54:43;;;;;;;2.17;1.23;;;-4.30;99.90;;;;;;5073550;28;20386;-48
2021/12/25 05:57:08;;;;;;;4.70;1.60;;;-4.30;99.90;;;;;;5073865;28;20029;-51
2021/12/25 05:59:34;;;;;;;5.50;1.20;;;-4.30;99.90;;;;;;5073536;28;20469;-50
2021/12/25 06:01:59;;;;;;;6.85;1.55;;;-4.30;99.90;;;;;;5073370;28;20565;-49
2021/12/25 06:04:25;;;;;;;1.80;1.40;;;-4.30;99.90;;;;;;5073716;28;20025;-49
2021/12/25 06:06:51;;;;;;;4.32;1.50;;;-4.30;99.90;;;;;;5055602;28;20067;-49
2021/12/25 06:09:18;;;;;;;3.53;1.20;;;-4.30;99.90;;;;;;5073739;28;20020;-49
2021/12/25 06:11:45;;;;;;;3.67;1.23;;;-4.30;99.90;;;;;;5073324;28;20025;-49
2021/12/25 06:14:17;;;;;;;2.90;1.25;;;-4.30;99.90;;;;;;5073267;28;20028;-49
2021/12/25 06:16:43;;;;;;;3.42;1.27;;;-4.30;99.90;;;;;;5073504;28;20040;-48
2021/12/25 06:19:09;;;;;;;2.22;1.20;;;-4.30;99.90;;;;;;5073259;28;20021;-48
2021/12/25 06:21:34;;;;;;;2.80;1.15;;;-4.30;99.90;;;;;;5073245;28;20100;-47
2021/12/25 06:24:02;;;;;;;1.30;1.15;;;-4.20;99.90;;;;;;5073275;28;20473;-47
2021/12/25 06:26:28;;;;;;;1.77;1.40;;;-4.30;99.90;;;;;;5074436;28;20100;-47
2021/12/25 06:28:54;;;;;;;5.75;1.50;;;-4.20;99.90;;;;;;5073441;28;20473;-47
2021/12/25 06:31:21;;;;;;;6.68;1.63;;;-4.20;99.90;;;;;;5073285;28;20028;-48
2021/12/25 06:33:46;;;;;;;4.82;1.48;;;-4.20;99.90;;;;;;5073340;28;20393;-47
2021/12/25 06:36:12;;;;;;;3.88;1.15;;;-4.30;99.90;;;;;;5073160;28;20043;-47
2021/12/25 06:38:40;;;;;;;3.03;1.30;;;-4.40;99.90;;;;;;5073025;28;20488;-47
2021/12/25 06:41:05;;;;;;;2.35;1.50;;;-4.30;99.90;;;;;;5055521;28;20021;-51
2021/12/25 06:43:31;;;;;;;1.75;1.40;;;-4.40;99.90;;;;;;5073997;28;20020;-48
2021/12/25 06:45:56;;;;;;;4.07;1.38;;;-4.40;99.90;;;;;;5074059;28;20436;-48
2021/12/25 06:48:22;;;;;;;1.67;0.98;;;-4.40;99.90;;;;;;5073820;28;20029;-47
2021/12/25 06:50:48;;;;;;;3.15;1.02;;;-4.40;99.90;;;;;;5074048;28;20044;-47
2021/12/25 06:53:14;;;;;;;3.20;1.65;;;-4.40;99.90;;;;;;5074885;28;20047;-48
2021/12/25 06:55:39;;;;;;;2.75;1.50;;;-4.40;99.90;;;;;;5056085;28;20470;-48
2021/12/25 06:58:05;;;;;;;3.22;1.40;;;-4.30;99.90;;;;;;5074145;28;20056;-48
2021/12/25 07:00:31;;;;;;;3.50;1.33;;;-4.30;99.90;;;;;;5073480;28;20025;-49
2021/12/25 07:02:57;;;;;;;3.55;1.38;;;-4.30;99.90;;;;;;5074788;28;20028;-49
2021/12/25 07:05:23;;;;;;;2.25;1.58;;;-4.30;99.90;;;;;;5078383;28;20032;-47
2021/12/25 07:07:50;;;;;;;2.75;1.00;;;-4.30;99.90;;;;;;5078668;28;20028;-48
2021/12/25 07:10:16;;;;;;;2.83;1.50;;;-4.20;99.90;;;;;;5077138;28;20462;-50
2021/12/25 07:12:46;;;;;;;6.22;1.77;;;-4.20;99.90;;;;;;5076942;28;20034;-45
2021/12/25 07:15:12;;;;;;;4.15;1.50;;;-4.20;99.90;;;;;;5077548;28;20029;-47
2021/12/25 07:17:37;;;;;;;1.95;1.38;;;-4.20;99.90;;;;;;5077651;28;20408;-48
2021/12/25 07:20:04;;;;;;;1.67;1.27;;;-4.20;99.90;;;;;;5077184;28;20032;-50
2021/12/25 07:22:29;;;;;;;2.47;1.38;;;-4.30;99.90;;;;;;5077371;28;20108;-47
2021/12/25 07:24:55;;;;;;;6.13;2.03;;;-4.30;99.90;;;;;;5077291;28;20051;-50
2021/12/25 07:27:21;;;;;;;3.45;1.73;;;-4.30;99.90;;;;;;5077947;28;20029;-49
2021/12/25 07:29:46;;;;;;;10.07;1.80;;;-4.30;99.90;;;;;;5077970;28;20052;-49
2021/12/25 07:32:12;;;;;;;2.70;1.65;;;-4.30;99.90;;;;;;5077933;28;20469;-48
2021/12/25 07:34:39;;;;;;;4.10;2.05;;;-4.40;99.90;;;;;;5077055;28;20466;-47
2021/12/25 07:37:06;;;;;;;2.85;1.95;;;-4.30;99.90;;;;;;5078003;28;20036;-48
2021/12/25 07:39:31;;;;;;;3.53;1.92;;;-4.30;99.90;;;;;;5077296;28;20036;-49
2021/12/25 07:41:57;;;;;;;6.90;2.08;;;-4.30;99.90;;;;;;5077164;28;20090;-48
2021/12/25 07:44:22;;;;;;;6.00;1.90;;;-4.20;99.90;;;;;;5077277;28;20044;-46
2021/12/25 07:46:48;;;;;;;4.05;1.67;;;-4.20;99.90;;;;;;5077760;28;20473;-47
2021/12/25 07:49:19;;;;;;;3.22;1.20;;;-4.20;99.90;;;;;;5077096;28;20031;-48
2021/12/25 07:51:46;;;;;;;15.20;2.08;;;-4.20;99.90;;;;;;5077105;28;20021;-46
2021/12/25 07:54:12;;;;;;;4.10;1.67;;;-4.20;99.90;;;;;;5077519;28;20020;-48
2021/12/25 07:56:39;;;;;;;8.02;2.10;;;-4.30;99.90;;;;;;5076584;28;20069;-46
2021/12/25 07:59:05;;;;;;;3.83;2.00;;;-4.30;99.90;;;;;;5076205;28;20037;-50
2021/12/25 08:01:34;;;;;;;2.88;1.80;;;-4.40;99.90;;;;;;5058117;28;20125;-49
2021/12/25 08:04:00;;;;;;;9.85;2.10;;;-4.40;99.90;;;;;;5075880;28;20025;-49
2021/12/25 08:06:26;;;;;;;4.70;2.08;;;-4.40;99.90;;;;;;5075818;28;20362;-51
2021/12/25 08:08:55;;;;;;;3.40;1.50;;;-4.40;99.90;;;;;;5075469;28;20100;-50
2021/12/25 08:11:21;;;;;;;3.65;2.00;;;-4.40;99.90;;;;;;5075308;28;20474;-49
2021/12/25 08:13:46;;;;;;;3.35;1.70;;;-4.40;99.90;;;;;;5074374;28;20071;-52
2021/12/25 08:16:12;;;;;;;4.90;1.77;;;-4.40;99.90;;;;;;5074900;28;20040;-48
2021/12/25 08:18:37;;;;;;;2.78;1.48;;;-4.40;99.90;;;;;;5075049;28;20091;-51
2021/12/25 08:21:04;;;;;;;2.35;1.58;;;-4.40;99.90;;;;;;5074849;28;20037;-46
2021/12/25 08:23:31;;;;;;;6.78;1.83;;;-4.30;99.90;;;;;;5075011;28;20036;-49
2021/12/25 08:25:56;;;;;;;1.85;1.20;;;-4.30;99.90;;;;;;5075200;28;20032;-49
2021/12/25 08:28:22;;;;;;;3.53;1.40;;;-4.20;99.90;;;;;;5074839;28;20037;-49
2021/12/25 08:30:47;;;;;;;2.35;1.60;;;-4.10;99.90;;;;;;5074720;28;20432;-49
2021/12/25 08:33:13;;;;;;;6.32;1.38;;;-4.10;99.90;;;;;;5075486;28;20535;-49
2021/12/25 08:35:39;;;;;;;6.05;1.58;;;-4.00;99.90;;;;;;5074632;28;20036;-51
2021/12/25 08:38:04;;;;;;;4.15;1.27;;;-3.90;99.90;;;;;;5075110;28;20113;-48
2021/12/25 08:40:30;;;;;;;5.72;1.75;;;-3.90;99.90;;;;;;5075016;28;20028;-48
2021/12/25 08:43:02;;;;;;;5.13;1.58;;;-3.80;99.90;;;;;;5074959;28;20024;-49
2021/12/25 08:45:49;;;;;;;6.07;1.40;;;-3.80;99.90;;;;;;5074835;28;20024;-47
2021/12/25 08:48:26;;;;;;;1.50;1.25;;;-3.80;99.90;;;;;;5074491;28;20028;-50
2021/12/25 08:50:53;;;;;;;4.22;1.80;;;-3.70;99.90;;;;;;5074210;28;20446;-49
2021/12/25 08:53:22;;;;;;;3.10;2.15;;;-3.60;99.90;;;;;;5074438;28;20021;-48
2021/12/25 08:55:49;;;;;;;5.03;1.55;;;-3.60;99.90;;;;;;5056406;28;20123;-50
2021/12/25 08:58:15;;;;;;;4.10;1.98;;;-3.50;99.90;;;;;;5074999;28;20081;-50
2021/12/25 09:00:42;;;;;;;9.15;2.20;;;-3.50;99.90;;;;;;5074174;28;20363;-49
2021/12/25 09:03:08;;;;;;;5.72;1.85;;;-3.50;99.90;;;;;;5074282;28;20476;-48
2021/12/25 09:05:35;;;;;;;3.22;1.60;;;-3.40;99.90;;;;;;5074356;28;20111;-48
2021/12/25 09:08:01;;;;;;;3.28;1.65;;;-3.40;99.90;;;;;;5074364;28;20113;-50
2021/12/25 09:10:28;;;;;;;3.60;1.27;;;-3.40;99.90;;;;;;5074241;28;20029;-49
2021/12/25 09:12:58;;;;;;;3.40;1.88;;;-3.40;99.90;;;;;;5074165;28;20040;-47
2021/12/25 09:15:24;;;;;;;6.68;1.95;;;-3.40;99.90;;;;;;5074098;28;20092;-51
2021/12/25 09:17:51;;;;;;;3.65;1.80;;;-3.40;99.90;;;;;;5073698;28;20021;-50
2021/12/25 09:20:18;;;;;;;3.78;1.33;;;-3.30;99.90;;;;;;5073098;28;20573;-49
2021/12/25 09:22:44;;;;;;;3.72;1.92;;;-3.20;99.90;;;;;;5072833;28;20366;-49
2021/12/25 09:25:11;;;;;;;6.95;2.15;;;-3.10;99.90;;;;;;5072774;28;20032;-51
2021/12/25 09:27:36;;;;;;;3.72;1.83;;;-3.10;99.90;;;;;;5073810;28;20370;-49
2021/12/25 09:30:04;;;;;;;4.47;1.73;;;-3.10;99.90;;;;;;5073350;28;20062;-48
2021/12/25 09:32:29;;;;;;;7.07;1.90;;;-3.10;99.90;;;;;;5073170;28;20485;-47
2021/12/25 09:34:55;;;;;;;4.32;1.80;;;-3.00;99.90;;;;;;5074384;28;20077;-49
2021/12/25 09:37:21;;;;;;;5.32;1.60;;;-3.00;99.90;;;;;;5073972;28;20024;-46
2021/12/25 09:39:47;;;;;;;6.07;2.15;;;-2.90;99.90;;;;;;5073786;28;20021;-49
2021/12/25 09:42:13;;;;;;;5.28;1.70;;;-2.80;99.90;;;;;;5055248;28;20389;-48
2021/12/25 09:44:39;;;;;;;4.28;1.83;;;-2.80;99.90;;;;;;5073412;28;20078;-50
2021/12/25 09:47:04;;;;;;;6.68;2.15;;;-2.80;99.90;;;;;;5073190;28;20021;-50
2021/12/25 09:49:30;;;;;;;3.80;1.70;;;-2.70;99.90;;;;;;5073056;28;20403;-46
2021/12/25 09:51:57;;;;;;;4.60;1.80;;;-2.70;99.90;;;;;;5073049;28;20036;-49
2021/12/25 09:54:22;;;;;;;4.20;1.70;;;-2.60;99.90;;;;;;5072763;28;20024;-50
2021/12/25 09:56:49;;;;;;;5.72;1.80;;;-2.50;99.90;;;;;;5072804;28;20047;-47
2021/12/25 09:59:16;;;;;;;6.25;1.70;;;-2.50;99.90;;;;;;5073158;28;20480;-48
2021/12/25 10:01:43;;;;;;;5.95;1.90;;;-2.40;99.90;;;;;;5073516;28;20074;-46
2021/12/25 10:04:12;;;;;;;3.92;1.90;;;-2.40;99.90;;;;;;5074789;28;20557;-48
2021/12/25 10:06:40;;;;;;;3.40;1.83;;;-2.30;99.90;;;;;;5073646;28;20021;-46
2021/12/25 10:09:21;;;;;;;4.78;1.70;;;-2.30;99.90;;;;;;5073478;28;20388;-46
2021/12/25 10:12:08;;;;;;;5.13;2.63;;;-2.30;99.90;;;;;;5073139;28;20021;-47
2021/12/25 10:14:38;;;;;;;7.57;2.50;;;-2.20;99.90;;;;;;5073710;28;20358;-47
2021/12/25 10:17:24;;;;;;;5.63;2.05;;;-2.20;99.90;;;;;;5073123;28;20036;-47
2021/12/25 10:20:12;;;;;;;4.00;1.70;;;-2.10;99.90;;;;;;5055676;28;20511;-47
2021/12/25 10:23:06;;;;;;;4.90;2.13;;;-2.10;99.90;;;;;;5073815;28;20029;-45
2021/12/25 10:25:42;;;;;;;6.43;2.20;;;-2.10;99.90;;;;;;5073340;28;20032;-48
2021/12/25 10:28:09;;;;;;;4.15;1.70;;;-2.00;99.90;;;;;;5055294;28;20062;-45
2021/12/25 10:30:45;;;;;;;1.63;1.35;;;-2.00;99.90;;;;;;5073928;28;20408;-45
2021/12/25 10:33:35;;;;;;;3.50;1.80;;;-1.90;99.90;;;;;;5073255;28;20028;-46
2021/12/25 10:36:09;;;;;;;2.63;1.60;;;-1.80;99.90;;;;;;5073141;28;20045;-49
2021/12/25 10:38:36;;;;;;;4.53;1.92;;;-1.80;99.90;;;;;;5075503;28;20486;-49
2021/12/25 10:41:20;;;;;;;6.18;1.80;;;-1.80;99.90;;;;;;5077868;28;20047;-48
2021/12/25 10:43:47;;;;;;;3.70;1.67;;;-1.80;99.90;;;;;;5061291;28;20057;-45
2021/12/25 10:46:14;;;;;;;4.03;1.73;;;-1.70;99.90;;;;;;5076413;28;20481;-46
2021/12/25 10:48:39;;;;;;;3.03;1.88;;;-1.70;99.90;;;;;;5076444;28;20021;-48
2021/12/25 10:51:21;;;;;;;6.05;2.00;;;-1.60;99.90;;;;;;5076751;28;20074;-46
2021/12/25 10:53:52;;;;;;;4.80;1.83;;;-1.50;99.90;;;;;;5076883;28;20028;-47
2021/12/25 10:56:19;;;;;;;;;;;-1.50;99.90;;;;;;5077119;28;20035;-48
2021/12/25 10:58:45;;;;;;;4.22;2.13;;;-1.50;99.90;;;;;;5076650;28;19983;-47
2021/12/25 11:01:14;;;;;;;3.22;1.88;;;-1.40;99.90;;;;;;5076352;28;20029;-48
2021/12/25 11:03:42;;;;;;;3.53;1.88;;;-1.40;99.90;;;;;;5076691;28;20028;-51
2021/12/25 11:06:13;;;;;;;3.75;1.98;;;-1.40;99.90;;;;;;5075984;28;20035;-47
2021/12/25 11:08:40;;;;;;;11.80;2.10;;;-1.40;99.90;;;;;;5076941;28;20047;-51
2021/12/25 11:11:16;;;;;;;1.88;1.50;;;-1.40;99.90;;;;;;5075833;28;20404;-48
2021/12/25 11:13:53;;;;;;;3.17;1.35;;;-1.30;99.90;;;;;;5059115;28;20078;-49
2021/12/25 11:16:27;;;;;;;1.88;1.17;;;-1.30;99.90;;;;;;5075683;28;20092;-51
2021/12/25 11:19:14;;;;;;;7.13;1.50;;;-1.30;99.90;;;;;;5076423;28;20033;-50
2021/12/25 11:21:45;;;;;;;4.78;1.80;;;-1.30;99.90;;;;;;5075033;28;20100;-48
2021/12/25 11:24:14;;;;;;;;;;;-1.30;99.90;;;;;;5075803;28;20044;-48
2021/12/25 11:26:43;;;;;;;4.63;1.40;;;-1.20;99.90;;;;;;5075199;28;19908;-47
2021/12/25 11:29:12;;;;;;;7.72;1.58;;;-1.30;99.90;;;;;;5074961;28;20103;-47
2021/12/25 11:31:38;;;;;;;5.32;1.88;;;-1.20;99.90;;;;;;5074910;28;20028;-48
2021/12/25 11:34:05;;;;;;;7.10;1.48;;;-1.20;99.90;;;;;;5074902;28;20024;-46
2021/12/25 11:36:32;;;;;;;4.55;1.80;;;-1.10;99.90;;;;;;5074718;28;20045;-51
2021/12/25 11:38:57;;;;;;;10.07;1.90;;;-1.10;99.90;;;;;;5074929;28;20059;-48
2021/12/25 11:41:28;;;;;;;7.68;1.83;;;-1.10;99.90;;;;;;5075020;28;20081;-47
2021/12/25 11:43:55;;;;;;;4.20;1.67;;;-1.10;99.90;;;;;;5075067;28;20040;-47
2021/12/25 11:46:23;;;;;;;2.70;1.25;;;-1.10;99.90;;;;;;5075106;28;20083;-48
2021/12/25 11:49:06;;;;;;;5.78;1.52;;;-1.10;99.90;;;;;;5074389;28;20099;-49
2021/12/25 11:51:32;;;;;;;6.70;1.50;;;-1.00;99.90;;;;;;5074761;28;20021;-48
2021/12/25 11:58:57;;;;;;;2.92;1.50;;;-1.00;99.90;;;;;;5074618;28;20025;-51
2021/12/25 12:01:29;;;;;;;4.43;1.45;;;-0.90;99.90;;;;;;5074478;28;20067;-49
2021/12/25 12:04:22;;;;;;;3.75;1.17;;;-0.90;99.90;;;;;;5074406;28;20104;-48
2021/12/25 12:06:47;;;;;;;6.82;1.63;;;-0.90;99.90;;;;;;5066223;28;20438;-49
2021/12/25 12:09:39;;;;;;;4.13;1.90;;;-0.90;99.90;;;;;;5074764;28;20047;-48
2021/12/25 12:12:04;;;;;;;5.57;1.70;;;-0.80;99.90;;;;;;5060148;28;20036;-53
2021/12/25 12:14:31;;;;;;;4.75;1.33;;;-0.70;99.90;;;;;;5074035;28;20478;-50
2021/12/25 12:17:00;;;;;;;5.65;1.88;;;-0.70;99.90;;;;;;5074072;28;20397;-48
2021/12/25 12:19:36;;;;;;;4.15;1.90;;;-0.70;99.90;;;;;;5073994;28;20127;-50
2021/12/25 12:22:16;;;;;;;7.68;2.15;;;-0.70;99.90;;;;;;5074743;28;20469;-50
2021/12/25 12:27:09;;;;;;;13.00;3.05;;;-0.60;99.90;;;;;;5074079;28;20412;-51
2021/12/25 12:29:38;;;;;;;5.63;2.45;;;-0.70;99.90;;;;;;5074777;28;20024;-50
2021/12/25 12:32:05;;;;;;;5.50;2.28;;;-0.70;99.90;;;;;;5074518;28;20025;-54
2021/12/25 12:34:40;;;;;;;3.47;1.70;;;-0.60;99.90;;;;;;5076879;28;20028;-49
2021/12/25 12:37:15;;;;;;;3.90;1.52;;;-0.60;99.90;;;;;;5074883;28;20032;-50
2021/12/25 12:39:42;;;;;;;3.60;1.65;;;-0.70;99.90;;;;;;5074104;28;20028;-50
2021/12/25 12:42:12;;;;;;;4.93;1.40;;;-0.70;99.90;;;;;;5073396;28;20079;-48
2021/12/25 12:44:38;;;;;;;3.45;1.58;;;-0.70;99.90;;;;;;5073658;28;20058;-52
2021/12/25 12:47:12;;;;;;;2.90;1.38;;;-0.70;99.90;;;;;;5073955;28;20021;-49
2021/12/25 12:49:39;;;;;;;4.60;1.80;;;-0.70;99.90;;;;;;5076546;28;20103;-48
2021/12/25 12:52:36;;;;;;;3.20;1.60;;;-0.70;99.90;;;;;;5078286;28;20462;-52
2021/12/25 12:55:08;;;;;;;4.05;1.80;;;-0.60;99.90;;;;;;5074310;28;20063;-51
2021/12/25 12:57:40;;;;;;;7.32;1.92;;;-0.70;99.90;;;;;;5074106;28;20028;-50
2021/12/25 13:00:22;;;;;;;3.47;1.42;;;-0.70;99.90;;;;;;5073411;28;20024;-48
2021/12/25 13:02:51;;;;;;;4.57;1.67;;;-0.60;99.90;;;;;;5073906;28;20086;-49
2021/12/25 13:05:20;;;;;;;3.25;1.30;;;-0.60;99.90;;;;;;5074361;28;20358;-50
2021/12/25 13:07:48;;;;;;;5.20;1.20;;;-0.60;99.90;;;;;;5073725;28;20473;-49
2021/12/25 13:10:25;;;;;;;4.07;1.30;;;-0.60;99.90;;;;;;5073793;28;20020;-49
2021/12/25 13:12:56;;;;;;;1.90;1.45;;;-0.50;99.90;;;;;;5074237;28;20025;-49
2021/12/25 13:15:27;;;;;;;4.95;1.85;;;-0.50;99.90;;;;;;5073939;28;20039;-50
2021/12/25 13:17:54;;;;;;;5.15;1.48;;;-0.50;99.90;;;;;;5073583;28;20025;-51
2021/12/25 13:20:33;;;;;;;4.45;1.50;;;-0.50;99.90;;;;;;5073545;28;20029;-49
2021/12/25 13:23:01;;;;;;;3.78;1.60;;;-0.50;99.90;;;;;;5073656;28;20024;-50
2021/12/25 13:25:27;;;;;;;5.82;1.83;;;-0.50;99.90;;;;;;5073153;28;20048;-50
2021/12/25 13:27:55;;;;;;;4.68;1.85;;;-0.50;99.90;;;;;;5073409;28;20021;-50
2021/12/25 13:30:20;;;;;;;3.13;1.73;;;-0.50;99.90;;;;;;5073611;28;20046;-49
2021/12/25 13:32:46;;;;;;;4.75;1.65;;;-0.50;99.90;;;;;;5073300;28;20032;-49
2021/12/25 13:35:16;;;;;;;4.85;1.88;;;-0.50;99.90;;;;;;5073388;28;20115;-49
2021/12/25 13:37:42;;;;;;;5.15;1.80;;;-0.50;99.90;;;;;;5073743;28;20031;-49
2021/12/25 13:40:14;;;;;;;5.32;1.95;;;-0.50;99.90;;;;;;5073295;28;20025;-50
2021/12/25 13:42:41;;;;;;;4.85;1.52;;;-0.50;99.90;;;;;;5055614;28;20024;-49
2021/12/25 13:45:07;;;;;;;6.15;1.80;;;-0.50;99.90;;;;;;5073308;28;20025;-50
2021/12/25 13:47:34;;;;;;;4.30;1.42;;;-0.50;99.90;;;;;;5073524;28;20031;-50
2021/12/25 13:50:05;;;;;;;2.65;1.40;;;-0.50;99.90;;;;;;5073018;28;20036;-50
2021/12/25 13:52:53;;;;;;;5.25;1.73;;;-0.50;99.90;;;;;;5055188;28;20025;-49
2021/12/25 13:55:23;;;;;;;7.18;2.28;;;-0.50;99.90;;;;;;5073117;28;20535;-51
2021/12/25 13:57:57;;;;;;;12.63;2.40;;;-0.40;99.90;;;;;;5073637;28;20210;-49
2021/12/25 14:00:30;;;;;;;6.07;1.95;;;-0.50;99.90;;;;;;5073136;28;20036;-48
2021/12/25 14:03:02;;;;;;;6.30;2.13;;;-0.50;99.90;;;;;;5055395;28;20044;-50
2021/12/25 14:05:32;;;;;;;6.65;2.13;;;-0.50;99.90;;;;;;5072848;28;20079;-50
2021/12/25 14:07:58;;;;;;;2.80;1.50;;;-0.50;99.90;;;;;;5073448;28;20047;-53
2021/12/25 14:10:28;;;;;;;7.82;1.45;;;-0.50;99.90;;;;;;5073492;28;20100;-51
2021/12/25 14:12:57;;;;;;;7.38;1.75;;;-0.50;99.90;;;;;;5076615;28;20085;-50
2021/12/25 14:15:33;;;;;;;2.92;1.40;;;-0.50;99.90;;;;;;5077016;28;20040;-49